NEODyS-2

Near Earth Objects - Dynamic Site
NEODyS ∴ Observatories ∴ Site 691 ∴ Obs & residuals
Contact »
691  ▹ 
OBSERVATIONS AND RESIDUALS

691-Steward Observatory, Kitt Peak-Spacewatch

Detections | Residuals | Detections & Residuals

[1-200] [201-400] [401-600] [601-800] [801-1000] [1001-1200] [1201-1400] [1401-1600] [1601-1800] [1801-2000] [2001-2200] [2201-2400] [2401-2600] [2601-2800] [2801-3000] [3001-3200] [3201-3400] [3401-3600] [3601-3800] [3801-4000] [4001-4200] [4201-4400] [4401-4600] [4601-4800] [4801-5000] [5001-5200] [5201-5400] [5401-5600] [5601-5800] [5801-6000] [6001-6200] [6201-6400] [6401-6600] [6601-6800] [6801-7000] [7001-7200] [7201-7400] [7401-7600] [7601-7800] [7801-8000] [8001-8200] [8201-8400] [8401-8600] [8601-8800] [8801-9000] [9001-9200] [9201-9400] [9401-9600] [9601-9800] [9801-10000] [10001-10200] [10201-10400] [10401-10600] [10601-10800] [10801-11000] [11001-11200] [11201-11400] [11401-11600] [11601-11800] [11801-12000] [12001-12200] [12201-12400] [12401-12600] [12601-12800] [12801-13000] [13001-13200] [13201-13400] [13401-13600] [13601-13800] [13801-14000] [14001-14200] [14201-14400] [14401-14600] [14601-14800] [14801-15000] [15001-15200] [15201-15400] [15401-15600] [15601-15800] [15801-16000] [16001-16200] [16201-16400] [16401-16600] [16601-16800] [16801-17000] [17001-17200] [17201-17400] [17401-17600] [17601-17800] [17801-18000] [18001-18200] [18201-18400] [18401-18600] [18601-18800] [18801-19000] [19001-19200] [19201-19400] [19401-19600] [19601-19800] [19801-20000] [20001-20200] [20201-20400] [20401-20600] [20601-20800] [20801-21000] [21001-21200] [21201-21400] [21401-21600] [21601-21800] [21801-22000] [22001-22200] [22201-22400] [22401-22600] [22601-22800] [22801-23000] [23001-23200] [23201-23400] [23401-23600] [23601-23800] [23801-24000] [24001-24200] [24201-24400] [24401-24600] [24601-24800] [24801-25000] [25001-25200] [25201-25400] [25401-25600] [25601-25800] [25801-26000] [26001-26200] [26201-26400] [26401-26600] [26601-26800] [26801-27000] [27001-27200] [27201-27400] [27401-27600] [27601-27800] [27801-28000] [28001-28200] [28201-28400] [28401-28600] [28601-28800] [28801-29000] [29001-29200] [29201-29400] [29401-29600] [29601-29800] [29801-30000] [30001-30200] [30201-30400] [30401-30600] [30601-30800] [30801-31000] [31001-31200] [31201-31400] [31401-31600] [31601-31800] [31801-32000] [32001-32200] [32201-32400] [32401-32600] [32601-32800] [32801-33000] [33001-33200] [33201-33400] [33401-33600] [33601-33800] [33801-34000] [34001-34200] [34201-34400] [34401-34600] [34601-34800] [34801-35000] [35001-35200] [35201-35400] [35401-35600] [35601-35800] [35801-36000] [36001-36200] [36201-36400] [36401-36600] [36601-36800] [36801-37000] [37001-37200] [37201-37400] [37401-37600] [37601-37800] [37801-38000] [38001-38200] [38201-38400] [38401-38600] [38601-38800] [38801-39000] [39001-39200] [39201-39400] [39401-39600] [39601-39800] [39801-40000] [40001-40200] [40201-40400] [40401-40600] [40601-40800] [40801-41000] [41001-41200] [41201-41400] [41401-41600] [41601-41800] [41801-42000] [42001-42200] [42201-42400] [42401-42600] [42601-42800] [42801-43000] [43001-43200] [43201-43400] [43401-43600] [43601-43800] [43801-44000] [44001-44200] [44201-44400] [44401-44600] [44601-44800] [44801-45000] [45001-45200] [45201-45400] [45401-45600] [45601-45800] [45801-46000] [46001-46200] [46201-46400] [46401-46600] [46601-46800] [46801-47000] [47001-47200] [47201-47400] [47401-47600] [47601-47800] [47801-48000] [48001-48200] [48201-48400] [48401-48600] [48601-48800] [48801-49000] [49001-49200] [49201-49400] [49401-49600] [49601-49800] [49801-50000] [50001-50200] [50201-50388]

Designation T Tech N Date Right Ascension Declination Apparent Magnitude Star Catalog Site code χ Used A Used M
yr-mo-day precision hr:min:sec precision rms F bias residual deg min sec precision rms F bias residual mag/col rms residual
1998WT24 O C 2016-01-03.15062 1.000E-05 22:51:33.830 1.500E-01 0.500 F -0.028 -0.163 +09° 34' 07.30" 1.000E-01 0.500 F 0.170 0.013 17.3 V 0.70 0.36 o 691 0.33 Yes Yes
1998WT24 O C 2016-01-03.15384 1.000E-05 22:51:33.240 1.500E-01 0.500 F -0.028 -0.219 +09° 34' 06.70" 1.000E-01 0.500 F 0.170 0.109 17.3 V 0.70 0.36 o 691 0.49 Yes Yes
2016AM2 O C 2016-01-03.16807 1.000E-05 07:36:07.090 1.500E-01 0.500 F -0.106 -0.110 +31° 04' 39.50" 1.000E-01 0.500 F 0.225 -0.183 20.8 V 0.70 -0.10 o 691 0.46 Yes Yes
2016AM2 O C 2016-01-03.17338 1.000E-05 07:36:08.540 1.500E-01 0.500 F -0.106 0.300 +31° 04' 37.40" 1.000E-01 0.500 F 0.225 -0.177 20.9 V 0.70 0.00 o 691 0.83 Yes Yes
2016AM2 O C 2016-01-03.17869 1.000E-05 07:36:09.890 1.500E-01 0.500 F -0.106 -0.379 +31° 04' 35.50" 1.000E-01 0.500 F 0.225 0.074 21.0 V 0.70 0.10 o 691 0.92 Yes Yes
2016AL2 O C H 2016-01-03.19881 1.000E-05 07:15:08.120 1.500E-01 0.500 F -0.106 -0.119 +30° 28' 19.90" 1.000E-01 0.500 F 0.184 -0.617 o 691 1.31 Yes No
2016AL2 O C H 2016-01-03.20551 1.000E-05 07:15:08.070 1.500E-01 0.500 F -0.106 0.859 +30° 28' 26.90" 1.000E-01 0.500 F 0.184 -2.596 o 691 5.26 No No
2016AL2 O C H 2016-01-03.21222 1.000E-05 07:15:07.880 1.500E-01 0.500 F -0.106 0.062 +30° 28' 37.20" 1.000E-01 0.500 F 0.184 -1.271 o 691 2.66 Yes No
2016AG2 O C H 2016-01-03.25376 1.000E-05 08:52:14.260 1.500E-01 0.500 F 0.029 0.513 +24° 08' 52.60" 1.000E-01 0.500 F 0.302 -0.019 20.2 V 0.70 0.11 o 691 1.22 Yes Yes
2016AG2 O C H 2016-01-03.25861 1.000E-05 08:52:11.810 1.500E-01 0.500 F 0.029 -1.298 +24° 08' 05.30" 1.000E-01 0.500 F 0.302 -1.608 20.4 V 0.70 0.31 o 691 3.79 No Yes
2016AG2 O C H 2016-01-03.26346 1.000E-05 08:52:09.450 1.500E-01 0.500 F 0.029 -1.834 +24° 07' 18.90" 1.000E-01 0.500 F 0.302 -2.281 20.4 V 0.70 0.31 o 691 5.37 No Yes
2016AC9 O C H 2016-01-03.32476 1.000E-05 04:38:48.060 1.500E-01 0.500 F -0.131 -0.077 +24° 49' 41.50" 1.000E-01 0.500 F 0.218 0.130 20.4 V 0.70 0.42 o 691 0.34 Yes Yes
2016AC9 O C H 2016-01-03.32962 1.000E-05 04:38:49.920 1.500E-01 0.500 F -0.131 0.368 +24° 49' 15.90" 1.000E-01 0.500 F 0.218 -0.072 20.4 V 0.70 0.42 o 691 0.83 Yes Yes
2016AC9 O C H 2016-01-03.33447 1.000E-05 04:38:51.710 1.500E-01 0.500 F -0.131 -0.124 +24° 48' 50.20" 1.000E-01 0.500 F 0.218 -0.408 20.3 V 0.70 0.32 o 691 0.93 Yes Yes
2016AG9 O C H 2016-01-03.35425 1.000E-05 07:08:51.110 1.500E-01 0.500 F -0.118 -0.681 +21° 09' 48.50" 1.000E-01 0.500 F 0.193 -0.532 19.9 V 0.70 0.43 o 691 1.81 Yes Yes
2016AG9 O C H 2016-01-03.35887 1.000E-05 07:08:48.880 1.500E-01 0.500 F -0.118 0.543 +21° 09' 21.80" 1.000E-01 0.500 F 0.193 -0.844 o 691 2.05 Yes No
2016AG9 O C H 2016-01-03.36349 1.000E-05 07:08:46.510 1.500E-01 0.500 F -0.118 -0.213 +21° 08' 56.20" 1.000E-01 0.500 F 0.193 -0.040 19.9 V 0.70 0.43 o 691 0.45 Yes Yes
2015YT9 O C 2016-01-12.31102 1.000E-05 08:29:14.400 1.500E-01 0.500 F 0.022 0.341 +12° 35' 25.20" 1.000E-01 0.500 F 0.168 -0.394 20.6 V 0.70 0.38 o 691 1.05 Yes Yes
2015YT9 O C 2016-01-12.32995 1.000E-05 08:29:10.470 1.500E-01 0.500 F 0.022 -0.165 +12° 36' 04.80" 1.000E-01 0.500 F 0.168 -0.070 20.1 V 0.70 -0.12 o 691 0.36 Yes Yes
2015YT9 O C 2016-01-12.34886 1.000E-05 08:29:06.580 1.500E-01 0.500 F 0.022 -0.128 +12° 36' 44.10" 1.000E-01 0.500 F 0.168 0.072 20.0 V 0.70 -0.22 o 691 0.29 Yes Yes
2005WE O C 2016-01-12.37952 1.000E-05 08:14:14.240 1.500E-01 0.500 F -0.016 -0.503 +16° 27' 40.60" 1.000E-01 0.500 F 0.157 0.058 19.3 V 0.70 -0.01 o 691 1.02 Yes Yes
2005WE O C 2016-01-12.39845 1.000E-05 08:14:10.650 1.500E-01 0.500 F -0.016 -0.420 +16° 27' 27.00" 1.000E-01 0.500 F 0.157 0.256 19.2 V 0.70 -0.11 o 691 0.99 Yes Yes
2005WE O C 2016-01-12.41739 1.000E-05 08:14:07.080 1.500E-01 0.500 F -0.016 -0.097 +16° 27' 12.90" 1.000E-01 0.500 F 0.157 0.026 19.2 V 0.70 -0.11 o 691 0.20 Yes Yes
2015SV2 O C 2016-01-12.44950 1.000E-05 07:42:53.770 1.500E-01 0.500 F 0.067 -0.158 +15° 06' 20.10" 1.000E-01 0.500 F 0.149 -0.034 18.5 V 0.70 0.13 o 691 0.32 Yes Yes
2015SV2 O C 2016-01-12.46934 1.000E-05 07:42:54.130 1.500E-01 0.500 F 0.067 -0.101 +15° 05' 46.90" 1.000E-01 0.500 F 0.149 0.097 18.5 V 0.70 0.13 o 691 0.28 Yes Yes
2015SV2 O C 2016-01-12.48828 1.000E-05 07:42:54.500 1.500E-01 0.500 F 0.067 -0.062 +15° 05' 15.00" 1.000E-01 0.500 F 0.149 0.058 18.5 V 0.70 0.13 o 691 0.17 Yes Yes
2016AR130 O C H 2016-01-13.07250 1.000E-05 05:08:52.210 1.500E-01 0.500 F -0.092 0.611 +15° 44' 17.60" 1.000E-01 0.500 F 0.189 -0.135 20.1 V 0.70 0.02 o 691 1.27 Yes Yes
2016AR130 O C H 2016-01-13.07406 1.000E-05 05:08:51.340 1.500E-01 0.500 F -0.092 -0.293 +15° 44' 25.50" 1.000E-01 0.500 F 0.189 0.082 20.0 V 0.70 -0.08 o 691 0.62 Yes Yes
2016AR130 O C H 2016-01-13.07586 1.000E-05 05:08:50.460 1.500E-01 0.500 F -0.092 0.454 +15° 44' 34.00" 1.000E-01 0.500 F 0.189 -0.282 20.1 V 0.70 0.02 o 691 1.09 Yes Yes
2016AW65 O C H 2016-01-13.20100 1.000E-05 05:29:32.830 1.500E-01 0.500 F -0.128 0.537 +02° 07' 55.50" 1.000E-01 0.500 F 0.110 -1.557 o 691 3.18 No No
2016AW65 O C H 2016-01-13.20327 1.000E-05 05:29:32.730 1.500E-01 0.500 F -0.128 -0.170 +02° 08' 09.60" 1.000E-01 0.500 F 0.110 0.332 o 691 0.77 Yes No
2016AW65 O C H 2016-01-13.20552 1.000E-05 05:29:32.720 1.500E-01 0.500 F -0.128 0.467 +02° 08' 21.60" 1.000E-01 0.500 F 0.110 0.230 o 691 1.08 Yes No
2015YD18 O C H 2016-01-13.22897 1.000E-05 05:35:22.350 1.500E-01 0.500 F -0.086 0.358 +22° 55' 04.00" 1.000E-01 0.500 F 0.244 -0.320 o 691 0.98 Yes No
2015YD18 O C H 2016-01-13.23169 1.000E-05 05:35:21.950 1.500E-01 0.500 F -0.086 -0.419 +22° 54' 54.10" 1.000E-01 0.500 F 0.244 -1.140 o 691 2.48 Yes No
2015YD18 O C H 2016-01-13.23441 1.000E-05 05:35:21.700 1.500E-01 0.500 F -0.086 0.875 +22° 54' 46.10" 1.000E-01 0.500 F 0.244 -0.060 o 691 1.79 Yes No
1999TX16 O C 2016-01-13.51929 1.000E-05 15:10:24.620 1.500E-01 0.500 F 0.142 -0.397 +11° 11' 04.60" 1.000E-01 0.500 F 0.069 0.235 o 691 0.92 Yes No
1999TX16 O C 2016-01-13.53112 1.000E-05 15:10:25.550 1.500E-01 0.500 F 0.142 -0.272 +11° 11' 01.80" 1.000E-01 0.500 F 0.069 0.098 o 691 0.58 Yes No
1999TX16 O C 2016-01-13.54295 1.000E-05 15:10:26.480 1.500E-01 0.500 F 0.142 -0.135 +11° 10' 59.00" 1.000E-01 0.500 F 0.069 -0.037 o 691 0.28 Yes No
2007BG O C H 2016-01-14.08747 1.000E-05 01:02:08.420 1.500E-01 0.500 F -0.160 -0.636 -22° 09' 55.20" 1.000E-01 0.500 F 0.179 -0.387 20.7 V 0.70 0.12 o 691 1.51 Yes Yes
2007BG O C H 2016-01-14.08996 1.000E-05 01:02:09.070 1.500E-01 0.500 F -0.160 -1.886 -22° 09' 49.80" 1.000E-01 0.500 F 0.179 -0.910 20.4 V 0.70 -0.18 o 691 4.13 No Yes
2007BG O C H 2016-01-14.09244 1.000E-05 01:02:09.890 1.500E-01 0.500 F -0.160 -0.733 -22° 09' 42.90" 1.000E-01 0.500 F 0.179 0.089 20.8 V 0.70 0.22 o 691 1.53 Yes Yes
2015TE323 O C H 2016-01-14.10170 1.000E-05 01:14:31.670 1.500E-01 0.500 F -0.097 -0.118 +00° 20' 33.80" 1.000E-01 0.500 F 0.151 -0.802 o 691 1.62 Yes No
2015TE323 O C H 2016-01-14.10650 1.000E-05 01:14:31.970 1.500E-01 0.500 F -0.097 0.266 +00° 20' 34.90" 1.000E-01 0.500 F 0.151 -1.232 o 691 2.52 Yes No
2015TE323 O C H 2016-01-14.11130 1.000E-05 01:14:32.230 1.500E-01 0.500 F -0.097 0.049 +00° 20' 37.20" 1.000E-01 0.500 F 0.151 -0.463 o 691 0.93 Yes No
2016AU8 O C 2016-01-14.11661 1.000E-05 01:06:43.600 1.500E-01 0.500 F -0.172 0.043 +21° 01' 13.50" 1.000E-01 0.500 F 0.328 -0.050 19.9 V 0.70 -0.52 o 691 0.13 Yes Yes
2016AU8 O C 2016-01-14.11910 1.000E-05 01:06:44.410 1.500E-01 0.500 F -0.172 0.412 +21° 01' 14.70" 1.000E-01 0.500 F 0.328 0.203 20.0 V 0.70 -0.42 o 691 0.92 Yes Yes
2016AU8 O C 2016-01-14.12160 1.000E-05 01:06:45.160 1.500E-01 0.500 F -0.172 -0.105 +21° 01' 15.70" 1.000E-01 0.500 F 0.328 0.255 19.9 V 0.70 -0.52 o 691 0.55 Yes Yes
2011AM24 O C H 2016-01-14.15079 1.000E-05 02:53:29.300 1.500E-01 0.500 F -0.267 -0.311 +02° 13' 30.50" 1.000E-01 0.500 F 0.254 0.262 20.8 V 0.70 -0.31 o 691 0.81 Yes Yes
2011AM24 O C H 2016-01-14.15420 1.000E-05 02:53:29.770 1.500E-01 0.500 F -0.267 0.100 +02° 13' 36.60" 1.000E-01 0.500 F 0.254 -0.892 21.0 V 0.70 -0.11 o 691 1.80 Yes Yes
2016AV65 O C H 2016-01-14.16942 1.000E-05 05:27:56.940 1.500E-01 0.500 F -0.163 -0.084 -11° 25' 35.40" 1.000E-01 0.500 F 0.070 -0.172 o 691 0.39 Yes No
2016AV65 O C H 2016-01-14.17144 1.000E-05 05:27:58.200 1.500E-01 0.500 F -0.163 0.903 -11° 25' 47.40" 1.000E-01 0.500 F 0.070 -0.934 o 691 2.67 Yes No
2016AV65 O C H 2016-01-14.17346 1.000E-05 05:27:59.370 1.500E-01 0.500 F -0.163 0.575 -11° 25' 58.40" 1.000E-01 0.500 F 0.070 -0.701 o 691 1.86 Yes No
2016AM131 O C 2016-01-14.17599 1.000E-05 05:19:27.160 1.500E-01 0.500 F -0.226 -0.235 -02° 39' 15.10" 1.000E-01 0.500 F 0.012 0.634 19.5 V 0.70 -0.23 o 691 1.36 Yes Yes
2016AM131 O C 2016-01-14.17784 1.000E-05 05:19:26.780 1.500E-01 0.500 F -0.226 -0.113 -02° 39' 17.40" 1.000E-01 0.500 F 0.012 -0.086 19.8 V 0.70 0.07 o 691 0.29 Yes Yes
2016AM131 O C 2016-01-14.17970 1.000E-05 05:19:26.400 1.500E-01 0.500 F -0.226 0.041 -02° 39' 19.10" 1.000E-01 0.500 F 0.012 -0.198 19.6 V 0.70 -0.13 o 691 0.41 Yes Yes
2016AC9 O C 2016-01-14.19528 1.000E-05 05:34:58.090 1.500E-01 0.500 F -0.131 0.206 +12° 26' 33.30" 1.000E-01 0.500 F 0.143 -0.167 20.3 V 0.70 -0.33 o 691 0.55 Yes Yes
2016AC9 O C 2016-01-14.19777 1.000E-05 05:34:58.590 1.500E-01 0.500 F -0.131 -0.302 +12° 26' 26.40" 1.000E-01 0.500 F 0.143 0.517 20.3 V 0.70 -0.33 o 691 1.23 Yes Yes
2016AC9 O C 2016-01-14.20025 1.000E-05 05:34:59.120 1.500E-01 0.500 F -0.131 -0.336 +12° 26' 18.40" 1.000E-01 0.500 F 0.143 0.073 20.5 V 0.70 -0.13 o 691 0.71 Yes Yes
2015YE O C H 2016-01-14.24435 1.000E-05 06:25:05.170 1.500E-01 0.500 F -0.006 0.243 +05° 50' 03.00" 1.000E-01 0.500 F 0.070 -0.047 o 691 0.66 Yes No
2015YE O C H 2016-01-14.24776 1.000E-05 06:25:05.690 1.500E-01 0.500 F -0.006 -0.097 +05° 49' 58.80" 1.000E-01 0.500 F 0.070 -0.018 o 691 0.27 Yes No
2012DU30 O C 2016-01-14.27164 1.000E-05 08:26:25.400 1.500E-01 0.500 F -0.033 0.103 -06° 50' 24.90" 1.000E-01 0.500 F 0.004 -0.438 o 691 0.90 Yes No
2016AP164 O C H 2016-01-14.27164 1.000E-05 08:25:45.640 1.500E-01 0.500 F 0.064 0.215 -07° 31' 53.30" 1.000E-01 0.500 F 0.010 -0.975 o 691 2.01 Yes No
2012DU30 O C 2016-01-14.27575 1.000E-05 08:26:25.120 1.500E-01 0.500 F -0.033 -0.529 -06° 50' 21.60" 1.000E-01 0.500 F 0.004 -0.067 o 691 1.07 Yes No
2016AP164 O C H 2016-01-14.27575 1.000E-05 08:25:45.530 1.500E-01 0.500 F 0.064 -0.252 -07° 31' 56.70" 1.000E-01 0.500 F 0.010 -0.123 21.6 V 0.70 0.02 o 691 0.56 Yes Yes
2012DU30 O C 2016-01-14.27986 1.000E-05 08:26:24.880 1.500E-01 0.500 F -0.033 -0.563 -06° 50' 18.30" 1.000E-01 0.500 F 0.004 0.303 o 691 1.28 Yes No
2016AP164 O C H 2016-01-14.27986 1.000E-05 08:25:45.490 1.500E-01 0.500 F 0.064 0.328 -07° 32' 01.40" 1.000E-01 0.500 F 0.010 -0.573 21.5 V 0.70 -0.08 o 691 1.33 Yes Yes
2016AU65 O C 2016-01-14.30401 1.000E-05 08:07:22.760 1.500E-01 0.500 F 0.011 0.437 +20° 48' 25.30" 1.000E-01 0.500 F 0.260 -0.732 19.5 V 0.70 -0.42 o 691 1.72 Yes Yes
2016AU65 O C 2016-01-14.30603 1.000E-05 08:07:21.700 1.500E-01 0.500 F 0.011 -0.343 +20° 48' 27.50" 1.000E-01 0.500 F 0.260 0.043 19.7 V 0.70 -0.22 o 691 0.70 Yes Yes
2016AU65 O C 2016-01-14.30806 1.000E-05 08:07:20.710 1.500E-01 0.500 F 0.011 -0.069 +20° 48' 28.60" 1.000E-01 0.500 F 0.260 -0.286 19.9 V 0.70 -0.02 o 691 0.59 Yes Yes
2016AG165 O C H 2016-01-14.31469 1.000E-05 09:49:16.380 1.500E-01 0.500 F 0.006 -0.052 +27° 21' 10.90" 1.000E-01 0.500 F 0.284 -0.215 20.4 V 0.70 0.30 o 691 0.45 Yes Yes
2016AG165 O C H 2016-01-14.31695 1.000E-05 09:49:15.910 1.500E-01 0.500 F 0.006 -0.048 +27° 21' 06.00" 1.000E-01 0.500 F 0.284 -0.385 20.4 V 0.70 0.30 o 691 0.78 Yes Yes
2016AH8 O C 2016-01-14.35007 1.000E-05 09:57:23.940 1.500E-01 0.500 F 0.111 -0.285 -11° 53' 57.30" 1.000E-01 0.500 F 0.101 -0.265 21.6 V 0.70 1.10 o 691 0.78 Yes Yes
2016AH8 O C 2016-01-14.35210 1.000E-05 09:57:23.840 1.500E-01 0.500 F 0.111 -0.635 -11° 53' 48.50" 1.000E-01 0.500 F 0.101 0.632 21.5 V 0.70 1.00 o 691 1.80 Yes Yes
2016AH8 O C 2016-01-14.35412 1.000E-05 09:57:23.770 1.500E-01 0.500 F 0.111 -0.549 -11° 53' 41.10" 1.000E-01 0.500 F 0.101 0.166 21.0 V 0.70 0.50 o 691 1.15 Yes Yes
1997AP10 O C 2016-01-14.43145 1.000E-05 07:35:54.830 1.500E-01 0.500 F -0.015 -0.168 +21° 41' 26.10" 1.000E-01 0.500 F 0.314 0.377 o 691 0.83 Yes No
1997AP10 O C 2016-01-14.45039 1.000E-05 07:35:52.600 1.500E-01 0.500 F -0.015 -0.152 +21° 41' 28.20" 1.000E-01 0.500 F 0.314 -0.144 o 691 0.42 Yes No
1997AP10 O C 2016-01-14.46932 1.000E-05 07:35:50.360 1.500E-01 0.500 F -0.015 -0.351 +21° 41' 30.30" 1.000E-01 0.500 F 0.314 -0.643 o 691 1.46 Yes No
2013WT67 O C 2016-01-14.50431 1.000E-05 15:33:21.130 1.500E-01 0.500 F 0.116 -0.478 +06° 54' 39.40" 1.000E-01 0.500 F 0.178 -1.422 o 691 3.01 Yes No
2013WT67 O C 2016-01-14.51613 1.000E-05 15:33:20.050 1.500E-01 0.500 F 0.116 -0.134 +06° 53' 44.10" 1.000E-01 0.500 F 0.178 -0.258 o 691 0.58 Yes No
2013WT67 O C 2016-01-14.53942 1.000E-05 15:33:17.860 1.500E-01 0.500 F 0.116 -0.039 +06° 51' 53.00" 1.000E-01 0.500 F 0.178 -0.011 o 691 0.08 Yes No
2015YU7 O C H 2016-01-15.10198 1.000E-05 03:07:10.840 1.500E-01 0.500 F -0.205 0.657 +04° 32' 40.10" 1.000E-01 0.500 F 0.257 -1.011 o 691 2.42 Yes No
2015YU7 O C H 2016-01-15.10470 1.000E-05 03:07:11.100 1.500E-01 0.500 F -0.205 -0.256 +04° 32' 41.60" 1.000E-01 0.500 F 0.257 -1.194 o 691 2.45 Yes No
2016AO66 O C 2016-01-15.11962 1.000E-05 03:31:52.160 1.500E-01 0.500 F -0.358 -0.168 +01° 42' 06.60" 1.000E-01 0.500 F 0.259 0.137 19.9 V 0.70 -0.42 o 691 0.44 Yes Yes
2016AO66 O C 2016-01-15.12211 1.000E-05 03:31:51.890 1.500E-01 0.500 F -0.358 -0.966 +01° 42' 16.60" 1.000E-01 0.500 F 0.259 -0.346 20.0 V 0.70 -0.32 o 691 2.07 Yes Yes
2016AO66 O C 2016-01-15.12460 1.000E-05 03:31:51.740 1.500E-01 0.500 F -0.358 0.035 +01° 42' 27.00" 1.000E-01 0.500 F 0.259 -0.429 20.1 V 0.70 -0.22 o 691 0.87 Yes Yes
2016AM131 O C 2016-01-15.12834 1.000E-05 05:16:14.300 1.500E-01 0.500 F -0.244 -0.096 -02° 52' 38.50" 1.000E-01 0.500 F 0.037 0.006 19.7 V 0.70 -0.02 o 691 0.19 Yes Yes
2016AM131 O C 2016-01-15.13106 1.000E-05 05:16:13.710 1.500E-01 0.500 F -0.244 -0.371 -02° 52' 40.10" 1.000E-01 0.500 F 0.037 0.682 19.6 V 0.70 -0.12 o 691 1.56 Yes Yes
2016AM131 O C 2016-01-15.13378 1.000E-05 05:16:13.150 1.500E-01 0.500 F -0.244 -0.194 -02° 52' 43.40" 1.000E-01 0.500 F 0.037 -0.343 19.8 V 0.70 0.08 o 691 0.79 Yes Yes
2016AH165 O C H 2016-01-15.13991 1.000E-05 05:33:44.850 1.500E-01 0.500 F -0.092 0.667 +24° 27' 49.90" 1.000E-01 0.500 F 0.179 -0.075 o 691 1.37 Yes No
2016AH165 O C H 2016-01-15.14239 1.000E-05 05:33:45.110 1.500E-01 0.500 F -0.092 0.390 +24° 27' 40.60" 1.000E-01 0.500 F 0.179 -0.509 20.4 V 0.70 -0.08 o 691 1.32 Yes Yes
2016AH165 O C H 2016-01-15.14488 1.000E-05 05:33:45.310 1.500E-01 0.500 F -0.092 -0.718 +24° 27' 32.90" 1.000E-01 0.500 F 0.179 0.694 21.0 V 0.70 0.52 o 691 2.05 Yes Yes
2015XA379 O C H 2016-01-15.17755 1.000E-05 06:03:55.940 1.500E-01 0.500 F 0.029 0.285 +05° 09' 46.60" 1.000E-01 0.500 F 0.122 0.175 19.9 V 0.70 -0.06 o 691 0.67 Yes Yes
2015XA379 O C H 2016-01-15.18027 1.000E-05 06:03:56.280 1.500E-01 0.500 F 0.029 -0.069 +05° 09' 45.00" 1.000E-01 0.500 F 0.122 0.118 20.0 V 0.70 0.04 o 691 0.27 Yes Yes
2015XA379 O C H 2016-01-15.18300 1.000E-05 06:03:56.620 1.500E-01 0.500 F 0.029 -0.423 +05° 09' 43.00" 1.000E-01 0.500 F 0.122 -0.329 20.1 V 0.70 0.14 o 691 1.08 Yes Yes
2012BU61 O C H 2016-01-15.18673 1.000E-05 06:23:30.620 1.500E-01 0.500 F -0.092 0.122 +27° 04' 29.40" 1.000E-01 0.500 F 0.208 -0.575 o 691 1.20 Yes No
2012BU61 O C H 2016-01-15.18945 1.000E-05 06:23:30.860 1.500E-01 0.500 F -0.092 0.526 +27° 04' 22.50" 1.000E-01 0.500 F 0.208 -0.928 o 691 2.17 Yes No
2012BU61 O C H 2016-01-15.19218 1.000E-05 06:23:31.010 1.500E-01 0.500 F -0.092 -0.276 +27° 04' 17.00" 1.000E-01 0.500 F 0.208 0.145 19.3 V 0.70 0.32 o 691 0.63 Yes Yes
2015XN O C H 2016-01-15.19550 1.000E-05 06:54:55.250 1.500E-01 0.500 F -0.049 0.342 +19° 56' 51.60" 1.000E-01 0.500 F 0.194 -0.413 o 691 1.11 Yes No
2015XN O C H 2016-01-15.19822 1.000E-05 06:54:55.750 1.500E-01 0.500 F -0.049 -0.090 +19° 56' 54.60" 1.000E-01 0.500 F 0.194 -0.697 o 691 1.48 Yes No
2015XN O C H 2016-01-15.20094 1.000E-05 06:54:56.290 1.500E-01 0.500 F -0.049 0.053 +19° 56' 59.60" 1.000E-01 0.500 F 0.194 1.025 o 691 2.15 Yes No
2016AV65 O C H 2016-01-15.21621 1.000E-05 05:39:07.820 1.500E-01 0.500 F -0.015 0.200 -12° 58' 28.30" 1.000E-01 0.500 F 0.008 -0.800 o 691 1.70 Yes No
2016AV65 O C H 2016-01-15.21800 1.000E-05 05:39:08.820 1.500E-01 0.500 F -0.015 -0.262 -12° 58' 37.30" 1.000E-01 0.500 F 0.008 -0.578 o 691 1.29 Yes No
2016AV65 O C H 2016-01-15.21979 1.000E-05 05:39:09.890 1.500E-01 0.500 F -0.015 0.300 -12° 58' 46.50" 1.000E-01 0.500 F 0.008 -0.562 o 691 1.32 Yes No
2016AH164 O C H 2016-01-15.22353 1.000E-05 08:10:37.750 1.500E-01 0.500 F -0.030 -0.008 +11° 43' 54.50" 1.000E-01 0.500 F 0.044 -0.617 o 691 1.30 Yes No
2016AH164 O C H 2016-01-15.22625 1.000E-05 08:10:36.930 1.500E-01 0.500 F -0.030 -0.117 +11° 43' 57.00" 1.000E-01 0.500 F 0.044 -0.093 o 691 0.31 Yes No
2016AH164 O C H 2016-01-15.22897 1.000E-05 08:10:36.160 1.500E-01 0.500 F -0.030 0.603 +11° 43' 58.20" 1.000E-01 0.500 F 0.044 -0.836 o 691 2.19 Yes No
2016AZ65 O C H 2016-01-15.24210 1.000E-05 07:58:30.480 1.500E-01 0.500 F -0.013 0.150 +00° 47' 55.00" 1.000E-01 0.500 F 0.045 -0.601 o 691 1.25 Yes No
2016AZ65 O C H 2016-01-15.24481 1.000E-05 07:58:29.960 1.500E-01 0.500 F -0.013 -0.200 +00° 47' 50.20" 1.000E-01 0.500 F 0.045 -1.235 o 691 2.52 Yes No
2016AZ65 O C H 2016-01-15.24753 1.000E-05 07:58:29.510 1.500E-01 0.500 F -0.013 0.532 +00° 47' 46.80" 1.000E-01 0.500 F 0.045 -0.454 o 691 1.41 Yes No
2016AL131 O C H 2016-01-15.27231 1.000E-05 08:23:38.020 1.500E-01 0.500 F 0.107 0.584 +10° 26' 58.10" 1.000E-01 0.500 F 0.080 -0.111 o 691 1.21 Yes No
2016AL131 O C H 2016-01-15.27503 1.000E-05 08:23:38.020 1.500E-01 0.500 F 0.107 0.432 +10° 27' 05.90" 1.000E-01 0.500 F 0.080 0.650 o 691 1.61 Yes No
2016AL131 O C H 2016-01-15.27775 1.000E-05 08:23:38.020 1.500E-01 0.500 F 0.107 0.282 +10° 27' 11.60" 1.000E-01 0.500 F 0.080 -0.688 o 691 1.53 Yes No
2001PE1 O C H 2016-01-15.28073 1.000E-05 08:19:47.210 1.500E-01 0.500 F -0.106 -0.254 +13° 37' 24.70" 1.000E-01 0.500 F 0.171 0.075 20.9 V 0.70 0.49 o 691 0.53 Yes Yes
2015YT9 O C H 2016-01-15.28073 1.000E-05 08:19:44.490 1.500E-01 0.500 F -0.106 0.300 +14° 13' 22.30" 1.000E-01 0.500 F 0.171 -0.770 20.5 V 0.70 0.29 o 691 1.66 Yes Yes
2001PE1 O C H 2016-01-15.28322 1.000E-05 08:19:47.050 1.500E-01 0.500 F -0.106 0.553 +13° 37' 24.90" 1.000E-01 0.500 F 0.171 -0.646 o 691 1.71 Yes No
2015YT9 O C H 2016-01-15.28322 1.000E-05 08:19:44.030 1.500E-01 0.500 F -0.106 0.569 +14° 13' 27.30" 1.000E-01 0.500 F 0.171 -0.492 o 691 1.51 Yes No
2001PE1 O C H 2016-01-15.28572 1.000E-05 08:19:46.830 1.500E-01 0.500 F -0.106 0.499 +13° 37' 26.20" 1.000E-01 0.500 F 0.171 -0.269 o 691 1.14 Yes No
2015YT9 O C H 2016-01-15.28572 1.000E-05 08:19:43.580 1.500E-01 0.500 F -0.106 1.013 +14° 13' 31.60" 1.000E-01 0.500 F 0.171 -0.932 o 691 2.76 Yes No
2015YR1 O C H 2016-01-15.30748 1.000E-05 09:18:02.110 1.500E-01 0.500 F 0.155 -0.281 -12° 15' 24.70" 1.000E-01 0.500 F 0.003 0.574 20.3 V 0.70 0.36 o 691 1.28 Yes Yes
2015YR1 O C H 2016-01-15.30974 1.000E-05 09:18:01.530 1.500E-01 0.500 F 0.155 0.087 -12° 15' 32.40" 1.000E-01 0.500 F 0.003 -0.380 20.6 V 0.70 0.66 o 691 0.78 Yes Yes
2016AF193 O C H 2016-01-15.32887 1.000E-05 10:07:58.410 1.500E-01 0.500 F 0.064 -0.426 -16° 30' 31.00" 1.000E-01 0.500 F 0.090 -0.101 o 691 0.88 Yes No
2016AF193 O C H 2016-01-15.33159 1.000E-05 10:07:58.010 1.500E-01 0.500 F 0.064 0.356 -16° 30' 37.50" 1.000E-01 0.500 F 0.090 -0.917 o 691 1.98 Yes No
2016AF193 O C H 2016-01-15.33431 1.000E-05 10:07:57.530 1.500E-01 0.500 F 0.064 -0.006 -16° 30' 41.50" 1.000E-01 0.500 F 0.090 0.765 20.9 V 0.70 0.28 o 691 1.54 Yes Yes
2016AH8 O C H 2016-01-15.35305 1.000E-05 09:56:51.410 1.500E-01 0.500 F 0.117 -0.588 -10° 47' 35.40" 1.000E-01 0.500 F 0.067 1.235 20.6 V 0.70 0.15 o 691 2.75 Yes Yes
2016AH8 O C H 2016-01-15.35554 1.000E-05 09:56:51.330 1.500E-01 0.500 F 0.117 -0.258 -10° 47' 26.10" 1.000E-01 0.500 F 0.067 0.503 20.5 V 0.70 0.05 o 691 1.13 Yes Yes
2016AD165 O C H 2016-01-15.35962 1.000E-05 11:01:35.640 1.500E-01 0.500 F 0.130 0.384 -00° 56' 24.10" 1.000E-01 0.500 F 0.134 0.146 o 691 0.83 Yes No
2016AD165 O C H 2016-01-15.36691 1.000E-05 11:01:36.690 1.500E-01 0.500 F 0.130 -0.522 -00° 56' 18.40" 1.000E-01 0.500 F 0.134 -0.783 o 691 1.89 Yes No
2016AF193 O C H 2016-01-16.47315 1.000E-05 10:04:53.790 1.500E-01 0.500 F 0.078 -0.258 -17° 09' 47.40" 1.000E-01 0.500 F 0.056 0.465 20.7 V 0.70 0.15 o 691 1.07 Yes Yes
2016AF193 O C H 2016-01-16.47587 1.000E-05 10:04:53.300 1.500E-01 0.500 F 0.078 -0.277 -17° 09' 53.20" 1.000E-01 0.500 F 0.056 0.197 20.7 V 0.70 0.15 o 691 0.68 Yes Yes
2016AF193 O C H 2016-01-16.47858 1.000E-05 10:04:52.840 1.500E-01 0.500 F 0.078 0.104 -17° 09' 59.10" 1.000E-01 0.500 F 0.056 -0.193 20.7 V 0.70 0.15 o 691 0.44 Yes Yes
2016AO131 O C H 2016-01-16.48270 1.000E-05 10:45:25.630 1.500E-01 0.500 F 0.178 -0.264 -00° 06' 50.80" 1.000E-01 0.500 F 0.189 -0.203 o 691 0.67 Yes No
2016AO131 O C H 2016-01-16.48496 1.000E-05 10:45:25.600 1.500E-01 0.500 F 0.178 0.446 -00° 06' 41.50" 1.000E-01 0.500 F 0.189 0.050 o 691 0.90 Yes No
2016AO131 O C H 2016-01-16.48722 1.000E-05 10:45:25.500 1.500E-01 0.500 F 0.178 0.101 -00° 06' 33.50" 1.000E-01 0.500 F 0.189 -0.996 o 691 2.01 Yes No
2016AJ193 O C H 2016-01-16.55033 1.000E-05 13:34:16.510 1.500E-01 0.612 F 0.359 -0.519 -08° 48' 36.00" 1.000E-01 0.612 F 0.101 -0.443 20.8 V 0.70 0.65 o 691 1.12 Yes Yes
2016AJ193 O C 2016-01-16.55033 1.000E-05 13:34:16.510 1.500E-01 0.612 F 0.359 -0.519 -08° 48' 35.80" 1.000E-01 0.612 F 0.101 -0.243 20.6 V 0.70 0.45 o 691 0.94 Yes Yes
2016AJ193 O C H 2016-01-16.55328 1.000E-05 13:34:16.290 1.500E-01 0.612 F 0.359 0.280 -08° 48' 39.40" 1.000E-01 0.612 F 0.101 -0.351 20.7 V 0.70 0.55 o 691 0.73 Yes Yes
2016AJ193 O C 2016-01-16.55328 1.000E-05 13:34:16.270 1.500E-01 0.612 F 0.359 -0.017 -08° 48' 39.10" 1.000E-01 0.612 F 0.101 -0.051 20.4 V 0.70 0.25 o 691 0.09 Yes Yes
2016AJ193 O C 2016-01-16.55623 1.000E-05 13:34:15.810 1.500E-01 0.612 F 0.359 -2.775 -08° 48' 44.10" 1.000E-01 0.612 F 0.101 -1.560 20.0 V 0.70 -0.15 o 691 5.20 No Yes
2016AJ193 O C H 2016-01-16.55623 1.000E-05 13:34:16.000 1.500E-01 0.612 F 0.359 0.041 -08° 48' 42.90" 1.000E-01 0.612 F 0.101 -0.360 20.8 V 0.70 0.65 o 691 0.59 Yes Yes
2016AX147 O C H 2016-01-18.21167 1.000E-05 07:44:53.580 1.500E-01 0.500 F -0.096 -0.243 +23° 36' 53.90" 1.000E-01 0.500 F 0.235 -0.063 20.2 V 0.70 0.28 o 691 0.50 Yes Yes
2016AX147 O C H 2016-01-18.21578 1.000E-05 07:44:53.160 1.500E-01 0.500 F -0.096 -0.340 +23° 36' 53.80" 1.000E-01 0.500 F 0.235 0.099 20.1 V 0.70 0.18 o 691 0.71 Yes Yes
2016AX147 O C H 2016-01-18.21989 1.000E-05 07:44:52.740 1.500E-01 0.500 F -0.096 -0.436 +23° 36' 53.40" 1.000E-01 0.500 F 0.235 -0.039 20.2 V 0.70 0.28 o 691 0.88 Yes Yes
2016BL1 O C H 2016-01-18.22659 1.000E-05 09:27:33.850 1.500E-01 0.500 F 0.123 -0.223 +14° 11' 17.90" 1.000E-01 0.500 F 0.246 0.468 21.2 V 0.70 0.58 o 691 1.05 Yes Yes
2016BL1 O C H 2016-01-18.23139 1.000E-05 09:27:34.040 1.500E-01 0.500 F 0.123 0.180 +14° 11' 25.30" 1.000E-01 0.500 F 0.246 0.369 20.7 V 0.70 0.08 o 691 0.83 Yes Yes
2016BL1 O C H 2016-01-18.23619 1.000E-05 09:27:34.200 1.500E-01 0.500 F 0.123 0.168 +14° 11' 32.20" 1.000E-01 0.500 F 0.246 -0.226 20.6 V 0.70 -0.02 o 691 0.57 Yes Yes
2016AO193 O C H 2016-01-18.24638 1.000E-05 08:21:00.400 1.500E-01 0.500 F 0.060 0.822 +22° 36' 55.20" 1.000E-01 0.500 F 0.222 -1.253 o 691 3.02 Yes No
2016AO193 O C H 2016-01-18.25188 1.000E-05 08:20:59.450 1.500E-01 0.500 F 0.060 -0.219 +22° 36' 50.50" 1.000E-01 0.500 F 0.222 0.095 o 691 0.48 Yes No
2016AO193 O C H 2016-01-18.25737 1.000E-05 08:20:58.600 1.500E-01 0.500 F 0.060 0.112 +22° 36' 43.80" 1.000E-01 0.500 F 0.222 -0.563 o 691 1.16 Yes No
2016AF193 O C H 2016-01-18.29696 1.000E-05 09:59:38.310 1.500E-01 0.500 F 0.130 -0.061 -18° 12' 22.80" 1.000E-01 0.500 F -0.100 -0.475 o 691 0.96 Yes No
2016AF193 O C H 2016-01-18.29992 1.000E-05 09:59:37.720 1.500E-01 0.500 F 0.130 -0.165 -18° 12' 28.30" 1.000E-01 0.500 F -0.100 0.244 o 691 0.59 Yes No
2016AF193 O C H 2016-01-18.30287 1.000E-05 09:59:37.120 1.500E-01 0.500 F 0.130 -0.429 -18° 12' 35.00" 1.000E-01 0.500 F -0.100 -0.262 o 691 1.01 Yes No
2013CT82 O C H 2016-01-18.37847 1.000E-05 10:11:16.990 1.500E-01 0.500 F 0.257 0.125 +08° 59' 33.70" 1.000E-01 0.500 F 0.044 -0.032 o 691 0.26 Yes No
2013CT82 O C H 2016-01-18.38304 1.000E-05 10:11:16.630 1.500E-01 0.500 F 0.257 -0.094 +08° 59' 35.40" 1.000E-01 0.500 F 0.044 0.056 o 691 0.22 Yes No
2013CT82 O C H 2016-01-18.38761 1.000E-05 10:11:16.320 1.500E-01 0.500 F 0.257 0.429 +08° 59' 35.90" 1.000E-01 0.500 F 0.044 -1.056 o 691 2.28 Yes No
1997XR2 O C H 2016-01-18.41251 1.000E-05 11:25:04.370 1.500E-01 0.500 F 0.235 -0.639 -15° 34' 42.10" 1.000E-01 0.500 F -0.027 -1.122 o 691 2.58 Yes No
1997XR2 O C H 2016-01-18.41731 1.000E-05 11:25:04.400 1.500E-01 0.500 F 0.235 0.636 -15° 34' 47.10" 1.000E-01 0.500 F -0.027 -0.739 o 691 1.95 Yes No
1997XR2 O C H 2016-01-18.42211 1.000E-05 11:25:04.320 1.500E-01 0.500 F 0.235 0.326 -15° 34' 52.40" 1.000E-01 0.500 F -0.027 -0.660 o 691 1.47 Yes No
2015VZ145 O C H 2016-01-18.43709 1.000E-05 10:31:07.060 1.500E-01 0.500 F 0.092 0.786 +15° 41' 39.60" 1.000E-01 0.500 F 0.141 -0.482 o 691 1.85 Yes No
2015VZ145 O C H 2016-01-18.44189 1.000E-05 10:31:06.620 1.500E-01 0.500 F 0.092 0.672 +15° 41' 43.90" 1.000E-01 0.500 F 0.141 -1.064 o 691 2.53 Yes No
1994UG O C H 2016-01-18.44832 1.000E-05 10:48:06.350 1.500E-01 0.500 F 0.191 0.338 +26° 41' 52.70" 1.000E-01 0.500 F 0.280 -0.671 o 691 1.51 Yes No
1994UG O C H 2016-01-18.45312 1.000E-05 10:48:06.540 1.500E-01 0.500 F 0.191 0.503 +26° 41' 56.00" 1.000E-01 0.500 F 0.280 -0.556 o 691 1.50 Yes No
1994UG O C H 2016-01-18.45794 1.000E-05 10:48:06.700 1.500E-01 0.500 F 0.191 0.254 +26° 41' 59.20" 1.000E-01 0.500 F 0.280 -0.546 o 691 1.21 Yes No
2015BN509 O C H 2016-01-18.50285 1.000E-05 11:44:08.680 1.500E-01 0.500 F 0.193 0.487 +04° 35' 14.00" 1.000E-01 0.500 F 0.334 -0.321 19.8 V 0.70 -0.06 o 691 1.17 Yes Yes
2015BN509 O C H 2016-01-18.50556 1.000E-05 11:44:09.410 1.500E-01 0.500 F 0.193 0.195 +04° 35' 12.10" 1.000E-01 0.500 F 0.334 -0.397 20.1 V 0.70 0.24 o 691 0.88 Yes Yes
2015BN509 O C H 2016-01-18.50828 1.000E-05 11:44:10.120 1.500E-01 0.500 F 0.193 -0.441 +04° 35' 10.60" 1.000E-01 0.500 F 0.334 -0.065 20.1 V 0.70 0.24 o 691 0.89 Yes Yes
2011BO24 O C H 2016-01-18.51379 1.000E-05 12:24:05.920 1.500E-01 0.500 F 0.100 0.348 +31° 34' 26.30" 1.000E-01 0.500 F 0.200 -0.926 o 691 1.98 Yes No
2011BO24 O C H 2016-01-18.51720 1.000E-05 12:24:06.280 1.500E-01 0.500 F 0.100 0.403 +31° 34' 31.20" 1.000E-01 0.500 F 0.200 -0.896 o 691 1.97 Yes No
2011BO24 O C H 2016-01-18.52061 1.000E-05 12:24:06.650 1.500E-01 0.500 F 0.100 0.586 +31° 34' 36.30" 1.000E-01 0.500 F 0.200 -0.663 o 691 1.77 Yes No
2016AD193 O C H 2016-01-18.53697 1.000E-05 11:06:18.020 1.500E-01 0.500 F 0.064 1.189 +13° 41' 59.50" 1.000E-01 0.500 F 0.183 -1.878 o 691 4.41 No No
2016AD193 O C H 2016-01-18.54107 1.000E-05 11:06:17.210 1.500E-01 0.500 F 0.064 0.476 +13° 42' 03.50" 1.000E-01 0.500 F 0.183 -0.471 o 691 1.35 Yes No
2016AD193 O C H 2016-01-18.54518 1.000E-05 11:06:16.590 1.500E-01 0.500 F 0.064 2.554 +13° 42' 05.70" 1.000E-01 0.500 F 0.183 -0.868 o 691 5.35 No No
2016AZ8 O C H 2016-01-18.55142 1.000E-05 12:52:04.460 1.500E-01 0.500 F 0.111 -0.276 +11° 16' 17.10" 1.000E-01 0.500 F 0.337 -0.263 20.6 V 0.70 0.10 o 691 0.76 Yes Yes
2016AZ8 O C H 2016-01-18.55484 1.000E-05 12:52:04.270 1.500E-01 0.500 F 0.111 0.068 +11° 16' 22.60" 1.000E-01 0.500 F 0.337 0.065 20.8 V 0.70 0.30 o 691 0.19 Yes Yes
2016AZ8 O C H 2016-01-18.55826 1.000E-05 12:52:04.050 1.500E-01 0.500 F 0.111 -0.032 +11° 16' 27.70" 1.000E-01 0.500 F 0.337 -0.004 20.7 V 0.70 0.20 o 691 0.07 Yes Yes
1999VF22 O C H 2016-01-19.53181 1.000E-05 11:49:38.770 1.500E-01 0.500 F 0.192 -0.711 +09° 20' 38.10" 1.000E-01 0.500 F 0.164 0.156 o 691 1.46 Yes No
1999VF22 O C H 2016-01-19.53522 1.000E-05 11:49:39.090 1.500E-01 0.500 F 0.192 -2.152 +09° 20' 35.80" 1.000E-01 0.500 F 0.164 -1.169 o 691 4.89 No No
1999VF22 O C H 2016-01-19.53863 1.000E-05 11:49:39.530 1.500E-01 0.500 F 0.192 -1.821 +09° 20' 35.60" 1.000E-01 0.500 F 0.164 -0.392 o 691 3.72 No No
2016BD1 O C H 2016-01-19.54491 1.000E-05 10:16:02.950 1.500E-01 0.500 F 0.055 -0.076 -05° 34' 56.90" 1.000E-01 0.500 F 0.096 -0.045 20.9 V 0.70 0.11 o 691 0.18 Yes Yes
2016BD1 O C H 2016-01-19.54786 1.000E-05 10:16:02.860 1.500E-01 0.500 F 0.055 -0.484 -05° 34' 51.60" 1.000E-01 0.500 F 0.096 0.178 20.9 V 0.70 0.11 o 691 1.05 Yes Yes
2016BD1 O C H 2016-01-19.55081 1.000E-05 10:16:02.860 1.500E-01 0.500 F 0.055 0.446 -05° 34' 46.80" 1.000E-01 0.500 F 0.096 -0.099 21.0 V 0.70 0.21 o 691 0.92 Yes Yes
2007BG O C H 2016-01-27.13450 1.000E-05 02:00:34.480 1.500E-01 0.500 F -0.336 -1.714 -13° 34' 28.60" 1.000E-01 0.500 F 0.127 0.289 20.9 V 0.70 0.25 o 691 3.40 No Yes
2007BG O C H 2016-01-27.13819 1.000E-05 02:00:35.480 1.500E-01 0.500 F -0.336 0.318 -13° 34' 20.10" 1.000E-01 0.500 F 0.127 0.181 20.7 V 0.70 0.05 o 691 0.74 Yes Yes
2007BG O C H 2016-01-27.14212 1.000E-05 02:00:36.400 1.500E-01 0.500 F -0.336 0.364 -13° 34' 10.30" 1.000E-01 0.500 F 0.127 0.811 20.9 V 0.70 0.25 o 691 1.80 Yes Yes
2001BB16 O C H 2016-01-27.17791 1.000E-05 02:31:51.050 1.500E-01 0.500 F -0.148 -0.123 +14° 34' 06.40" 1.000E-01 0.500 F 0.269 0.402 21.0 V 0.70 0.55 o 691 0.85 Yes Yes
2001BB16 O C H 2016-01-27.18323 1.000E-05 02:31:52.630 1.500E-01 0.500 F -0.148 2.346 +14° 34' 20.70" 1.000E-01 0.500 F 0.269 -0.218 20.9 V 0.70 0.45 o 691 4.68 No Yes
2001BB16 O C H 2016-01-27.18854 1.000E-05 02:31:53.770 1.500E-01 0.500 F -0.148 -1.596 +14° 34' 35.10" 1.000E-01 0.500 F 0.269 -0.688 20.6 V 0.70 0.15 o 691 3.44 No Yes
2016AO66 O C 2016-01-27.22561 1.000E-05 03:19:52.790 1.500E-01 0.500 F -0.273 -0.324 +16° 55' 51.10" 1.000E-01 0.500 F 0.335 0.412 20.2 V 0.70 -0.18 o 691 1.08 Yes Yes
2016AO66 O C 2016-01-27.23069 1.000E-05 03:19:52.570 1.500E-01 0.500 F -0.273 -0.178 +16° 56' 14.80" 1.000E-01 0.500 F 0.335 0.175 20.2 V 0.70 -0.18 o 691 0.51 Yes Yes
2016AO66 O C 2016-01-27.23577 1.000E-05 03:19:52.310 1.500E-01 0.500 F -0.273 -0.622 +16° 56' 38.70" 1.000E-01 0.500 F 0.335 0.141 20.1 V 0.70 -0.28 o 691 1.29 Yes Yes
2016AM131 O C H 2016-01-27.26696 1.000E-05 04:34:45.390 1.500E-01 0.500 F -0.249 -0.127 -05° 14' 05.20" 1.000E-01 0.500 F -0.062 -0.234 20.1 V 0.70 0.35 o 691 0.54 Yes Yes
2016AM131 O C H 2016-01-27.27111 1.000E-05 04:34:44.500 1.500E-01 0.500 F -0.249 -0.449 -05° 14' 07.80" 1.000E-01 0.500 F -0.062 -0.541 19.8 V 0.70 0.05 o 691 1.41 Yes Yes
2016AM131 O C H 2016-01-27.27527 1.000E-05 04:34:43.630 1.500E-01 0.500 F -0.249 -0.450 -05° 14' 09.80" 1.000E-01 0.500 F -0.062 -0.244 20.0 V 0.70 0.25 o 691 1.03 Yes Yes
2015XJ261 O C 2016-01-27.28548 1.000E-05 07:49:57.840 1.500E-01 0.500 F 0.001 -0.004 +18° 59' 18.70" 1.000E-01 0.500 F 0.344 -0.060 19.5 V 0.70 0.00 o 691 0.12 Yes Yes
2015YT9 O C H 2016-01-27.28548 1.000E-05 07:48:48.300 1.500E-01 0.500 F 0.001 -1.093 +19° 18' 15.20" 1.000E-01 0.500 F 0.344 -0.903 20.9 V 0.70 0.06 o 691 2.85 Yes Yes
2015XJ261 O C 2016-01-27.29103 1.000E-05 07:49:57.500 1.500E-01 0.500 F 0.001 -0.617 +18° 59' 30.20" 1.000E-01 0.500 F 0.344 0.471 19.3 V 0.70 -0.20 o 691 1.56 Yes Yes
2015YT9 O C H 2016-01-27.29103 1.000E-05 07:48:47.610 1.500E-01 0.500 F 0.001 -0.753 +19° 18' 22.80" 1.000E-01 0.500 F 0.344 0.128 21.2 V 0.70 0.36 o 691 1.53 Yes Yes
2015XJ261 O C 2016-01-27.29657 1.000E-05 07:49:57.220 1.500E-01 0.500 F 0.001 -0.388 +18° 59' 40.80" 1.000E-01 0.500 F 0.344 0.129 19.5 V 0.70 0.00 o 691 0.82 Yes Yes
2015YT9 O C H 2016-01-27.29657 1.000E-05 07:48:46.920 1.500E-01 0.500 F 0.001 -0.434 +19° 18' 28.70" 1.000E-01 0.500 F 0.344 -0.521 20.9 V 0.70 0.06 o 691 1.36 Yes Yes
2016AX147 O C 2016-01-27.30034 1.000E-05 07:29:44.220 1.500E-01 0.500 F -0.089 -0.281 +23° 20' 32.90" 1.000E-01 0.500 F 0.243 -0.161 19.9 V 0.70 -0.18 o 691 0.65 Yes Yes
2016AX147 O C 2016-01-27.30637 1.000E-05 07:29:43.560 1.500E-01 0.500 F -0.089 -0.790 +23° 20' 32.80" 1.000E-01 0.500 F 0.243 0.634 19.8 V 0.70 -0.28 o 691 2.03 Yes Yes

[1-200] [201-400] [401-600] [601-800] [801-1000] [1001-1200] [1201-1400] [1401-1600] [1601-1800] [1801-2000] [2001-2200] [2201-2400] [2401-2600] [2601-2800] [2801-3000] [3001-3200] [3201-3400] [3401-3600] [3601-3800] [3801-4000] [4001-4200] [4201-4400] [4401-4600] [4601-4800] [4801-5000] [5001-5200] [5201-5400] [5401-5600] [5601-5800] [5801-6000] [6001-6200] [6201-6400] [6401-6600] [6601-6800] [6801-7000] [7001-7200] [7201-7400] [7401-7600] [7601-7800] [7801-8000] [8001-8200] [8201-8400] [8401-8600] [8601-8800] [8801-9000] [9001-9200] [9201-9400] [9401-9600] [9601-9800] [9801-10000] [10001-10200] [10201-10400] [10401-10600] [10601-10800] [10801-11000] [11001-11200] [11201-11400] [11401-11600] [11601-11800] [11801-12000] [12001-12200] [12201-12400] [12401-12600] [12601-12800] [12801-13000] [13001-13200] [13201-13400] [13401-13600] [13601-13800] [13801-14000] [14001-14200] [14201-14400] [14401-14600] [14601-14800] [14801-15000] [15001-15200] [15201-15400] [15401-15600] [15601-15800] [15801-16000] [16001-16200] [16201-16400] [16401-16600] [16601-16800] [16801-17000] [17001-17200] [17201-17400] [17401-17600] [17601-17800] [17801-18000] [18001-18200] [18201-18400] [18401-18600] [18601-18800] [18801-19000] [19001-19200] [19201-19400] [19401-19600] [19601-19800] [19801-20000] [20001-20200] [20201-20400] [20401-20600] [20601-20800] [20801-21000] [21001-21200] [21201-21400] [21401-21600] [21601-21800] [21801-22000] [22001-22200] [22201-22400] [22401-22600] [22601-22800] [22801-23000] [23001-23200] [23201-23400] [23401-23600] [23601-23800] [23801-24000] [24001-24200] [24201-24400] [24401-24600] [24601-24800] [24801-25000] [25001-25200] [25201-25400] [25401-25600] [25601-25800] [25801-26000] [26001-26200] [26201-26400] [26401-26600] [26601-26800] [26801-27000] [27001-27200] [27201-27400] [27401-27600] [27601-27800] [27801-28000] [28001-28200] [28201-28400] [28401-28600] [28601-28800] [28801-29000] [29001-29200] [29201-29400] [29401-29600] [29601-29800] [29801-30000] [30001-30200] [30201-30400] [30401-30600] [30601-30800] [30801-31000] [31001-31200] [31201-31400] [31401-31600] [31601-31800] [31801-32000] [32001-32200] [32201-32400] [32401-32600] [32601-32800] [32801-33000] [33001-33200] [33201-33400] [33401-33600] [33601-33800] [33801-34000] [34001-34200] [34201-34400] [34401-34600] [34601-34800] [34801-35000] [35001-35200] [35201-35400] [35401-35600] [35601-35800] [35801-36000] [36001-36200] [36201-36400] [36401-36600] [36601-36800] [36801-37000] [37001-37200] [37201-37400] [37401-37600] [37601-37800] [37801-38000] [38001-38200] [38201-38400] [38401-38600] [38601-38800] [38801-39000] [39001-39200] [39201-39400] [39401-39600] [39601-39800] [39801-40000] [40001-40200] [40201-40400] [40401-40600] [40601-40800] [40801-41000] [41001-41200] [41201-41400] [41401-41600] [41601-41800] [41801-42000] [42001-42200] [42201-42400] [42401-42600] [42601-42800] [42801-43000] [43001-43200] [43201-43400] [43401-43600] [43601-43800] [43801-44000] [44001-44200] [44201-44400] [44401-44600] [44601-44800] [44801-45000] [45001-45200] [45201-45400] [45401-45600] [45601-45800] [45801-46000] [46001-46200] [46201-46400] [46401-46600] [46601-46800] [46801-47000] [47001-47200] [47201-47400] [47401-47600] [47601-47800] [47801-48000] [48001-48200] [48201-48400] [48401-48600] [48601-48800] [48801-49000] [49001-49200] [49201-49400] [49401-49600] [49601-49800] [49801-50000] [50001-50200] [50201-50388]